Time;durP1;ratioP1;P1;durP2;ratioP2;P2;SDS_P1;SDS_P2;PMS_P1;PMS_P2;Temp;Humidity;BMP_temperature;BMP_pressure;BME280_temperature;BME280_humidity;BME280_pressure;Samples;Min_cycle;Max_cycle;Signal;HPM_P1;HPM_P2
2021/05/15 00:19:54;;;;;;;3.67;1.40;;;7.80;99.90;;;;;;6316363;22;20688;-95
2021/05/15 00:23:12;;;;;;;2.20;1.20;;;7.60;99.90;;;;;;6228043;22;20378;-95
2021/05/15 00:26:40;;;;;;;2.50;0.80;;;7.40;99.90;;;;;;6214866;22;20458;-94
2021/05/15 00:29:41;;;;;;;2.53;0.98;;;7.20;99.90;;;;;;6263227;22;20347;-95
2021/05/15 00:33:08;;;;;;;1.52;0.98;;;7.00;99.90;;;;;;6189287;23;20373;-95
2021/05/15 00:36:23;;;;;;;1.87;1.10;;;6.80;99.90;;;;;;6152363;23;20376;-95
2021/05/15 00:39:26;;;;;;;5.20;0.90;;;6.90;99.90;;;;;;6110449;23;20488;-95
2021/05/15 00:42:50;;;;;;;2.25;1.20;;;7.00;99.90;;;;;;6176611;23;20372;-95
2021/05/15 00:46:32;;;;;;;2.15;1.10;;;7.10;99.90;;;;;;6137215;23;20396;-95
2021/05/15 00:49:51;;;;;;;1.40;0.90;;;7.10;99.90;;;;;;6019729;23;20418;-95
2021/05/15 00:53:44;;;;;;;2.20;0.90;;;7.00;99.90;;;;;;6033193;23;21012;-95
2021/05/15 01:00:31;;;;;;;2.38;0.90;;;6.80;99.90;;;;;;5994633;23;20460;-95
2021/05/15 01:03:49;;;;;;;1.27;0.80;;;6.60;99.90;;;;;;5959761;23;20494;-95
2021/05/15 01:07:19;;;;;;;4.35;0.88;;;6.50;99.90;;;;;;5987382;24;20477;-95
2021/05/15 01:10:37;;;;;;;2.00;0.80;;;6.50;99.90;;;;;;5978485;23;20394;-95
2021/05/15 01:14:17;;;;;;;2.00;1.20;;;6.70;99.90;;;;;;6035674;23;20377;-94
2021/05/15 01:22:05;;;;;;;2.87;0.90;;;6.70;99.90;;;;;;5938004;24;20487;-94
2021/05/15 01:25:21;;;;;;;2.53;0.80;;;7.00;99.90;;;;;;5882364;24;20460;-95
2021/05/15 01:29:14;;;;;;;2.67;1.02;;;7.10;99.90;;;;;;5905949;24;20768;-94
2021/05/15 01:35:52;;;;;;;5.22;0.95;;;7.00;99.90;;;;;;5848260;24;20473;-95
2021/05/15 01:39:01;;;;;;;2.58;1.08;;;7.20;99.90;;;;;;5965005;23;20391;-95
2021/05/15 01:42:43;;;;;;;2.17;0.98;;;7.30;99.90;;;;;;5855918;24;20402;-94
2021/05/15 01:46:02;;;;;;;1.65;0.75;;;7.30;99.90;;;;;;5842753;24;20405;-95
2021/05/15 01:49:54;;;;;;;1.90;0.90;;;7.30;99.90;;;;;;5854940;24;20412;-95
2021/05/15 01:53:15;;;;;;;2.30;1.08;;;7.10;99.90;;;;;;5798746;24;20910;-94
2021/05/15 01:56:55;;;;;;;2.70;1.10;;;6.80;99.90;;;;;;5829922;24;20392;-95
2021/05/15 02:00:15;;;;;;;2.97;1.00;;;6.70;99.90;;;;;;5779044;24;20386;-95
2021/05/15 02:03:48;;;;;;;1.52;1.00;;;6.70;99.90;;;;;;5853182;24;20382;-94
2021/05/15 02:10:50;;;;;;;1.52;1.02;;;6.60;99.90;;;;;;5925332;24;20440;-95
2021/05/15 02:14:29;;;;;;;3.45;1.02;;;6.70;99.90;;;;;;5898572;24;20384;-94
2021/05/15 02:17:18;;;;;;;3.55;1.00;;;6.70;99.90;;;;;;5886444;23;20448;-96
2021/05/15 02:20:00;;;;;;;1.57;1.10;;;6.60;99.90;;;;;;6098163;23;20474;-96
2021/05/15 02:22:45;;;;;;;1.60;0.90;;;6.60;99.90;;;;;;6122172;22;20687;-96
2021/05/15 02:25:48;;;;;;;1.02;0.80;;;6.70;99.90;;;;;;6279217;22;20880;-96
2021/05/15 02:29:00;;;;;;;3.30;0.98;;;6.70;99.90;;;;;;6197012;23;20397;-95
2021/05/15 02:32:00;;;;;;;1.55;1.08;;;6.70;99.90;;;;;;6172251;23;20393;-96
2021/05/15 02:35:23;;;;;;;1.42;0.95;;;6.70;99.90;;;;;;6175551;23;20412;-96
2021/05/15 02:38:38;;;;;;;1.50;1.00;;;6.70;99.90;;;;;;6196330;23;20393;-96
2021/05/15 02:41:31;;;;;;;2.63;1.00;;;6.70;99.90;;;;;;6193585;23;20358;-96
2021/05/15 02:44:26;;;;;;;6.35;1.35;;;6.80;99.90;;;;;;6168100;23;20497;-96
2021/05/15 02:47:38;;;;;;;1.83;1.15;;;6.80;99.90;;;;;;6173158;23;20356;-96
2021/05/15 02:50:48;;;;;;;1.80;0.90;;;6.60;99.90;;;;;;6155119;23;20513;-96
2021/05/15 02:53:21;;;;;;;2.83;1.00;;;6.70;99.90;;;;;;6261578;22;20810;-96
2021/05/15 02:56:00;;;;;;;1.23;0.85;;;6.70;99.90;;;;;;6286509;22;20434;-96
2021/05/15 02:58:36;;;;;;;2.42;1.00;;;6.60;99.90;;;;;;6261961;22;20383;-96
2021/05/15 03:01:04;;;;;;;2.60;1.00;;;6.60;99.90;;;;;;6291561;22;20817;-96
2021/05/15 03:03:30;;;;;;;2.10;1.10;;;6.90;99.90;;;;;;6264886;22;20387;-96
2021/05/15 03:06:10;;;;;;;3.85;1.10;;;7.10;99.90;;;;;;6237351;22;20360;-95
2021/05/15 03:08:36;;;;;;;2.30;1.00;;;7.20;99.90;;;;;;6239500;22;20360;-96
2021/05/15 03:11:04;;;;;;;4.80;1.00;;;7.30;99.90;;;;;;6238663;22;20388;-96
2021/05/15 03:13:34;;;;;;;6.75;0.85;;;7.30;99.90;;;;;;6258947;22;20364;-96
2021/05/15 03:16:14;;;;;;;2.85;1.00;;;7.40;99.90;;;;;;6261418;22;20348;-96
2021/05/15 03:18:56;;;;;;;4.10;1.10;;;7.50;99.90;;;;;;6262957;22;20345;-96
2021/05/15 03:21:24;;;;;;;1.92;0.90;;;7.40;99.90;;;;;;6261200;22;20961;-96
2021/05/15 03:24:03;;;;;;;2.25;0.95;;;7.50;99.90;;;;;;6282030;22;20677;-95
2021/05/15 03:26:31;;;;;;;1.60;1.00;;;7.40;99.90;;;;;;6297496;22;20366;-94
2021/05/15 03:29:06;;;;;;;3.65;0.90;;;7.40;99.90;;;;;;6300686;22;20359;-94
2021/05/15 03:37:47;;;;;;;3.60;1.42;;;7.00;99.90;;;;;;6276953;22;20366;-95
2021/05/15 03:40:56;;;;;;;2.33;1.20;;;6.90;99.90;;;;;;6257275;22;20365;-96
2021/05/15 03:44:07;;;;;;;5.10;1.60;;;6.90;99.90;;;;;;6231311;23;20440;-96
2021/05/15 03:46:37;;;;;;;2.17;1.30;;;6.70;99.90;;;;;;6194014;23;20378;-96
2021/05/15 03:49:09;;;;;;;2.83;1.35;;;6.70;99.90;;;;;;6203006;23;20372;-96
2021/05/15 03:51:43;;;;;;;1.50;1.40;;;6.70;99.90;;;;;;6225026;23;20387;-96
2021/05/15 03:54:15;;;;;;;4.43;1.80;;;6.60;99.90;;;;;;6224062;23;20722;-96
2021/05/15 03:56:51;;;;;;;3.53;1.77;;;6.60;99.90;;;;;;6223915;23;20355;-96
2021/05/15 04:10:59;;;;;;;2.63;1.50;;;6.80;99.90;;;;;;6324220;22;20878;-96
2021/05/15 04:14:00;;;;;;;5.72;1.98;;;6.70;99.90;;;;;;6284375;22;20357;-96
2021/05/15 04:17:18;;;;;;;3.90;1.75;;;6.80;99.90;;;;;;6320327;22;20843;-96
2021/05/15 04:20:15;;;;;;;3.22;1.92;;;6.80;99.90;;;;;;6323683;22;20351;-96
2021/05/15 04:23:37;;;;;;;7.53;1.75;;;6.90;99.90;;;;;;6322077;22;20374;-96
2021/05/15 04:39:09;;;;;;;4.68;2.35;;;7.00;99.90;;;;;;6201460;23;20430;-96
2021/05/15 04:42:01;;;;;;;5.65;2.97;;;6.90;99.90;;;;;;6179688;23;20430;-96
2021/05/15 04:44:58;;;;;;;4.90;2.25;;;6.90;99.90;;;;;;6093430;23;20814;-96
2021/05/15 04:47:26;;;;;;;3.70;2.65;;;6.90;99.90;;;;;;6084320;23;20369;-95
2021/05/15 04:50:00;;;;;;;5.18;3.13;;;6.90;99.90;;;;;;6111113;23;20393;-95
2021/05/15 04:53:19;;;;;;;3.97;2.70;;;6.90;99.90;;;;;;6043271;23;20390;-96
2021/05/15 04:56:44;;;;;;;6.22;3.10;;;6.90;99.90;;;;;;6059976;23;20386;-95
2021/05/15 05:50:24;;;;;;;8.07;4.40;;;7.00;99.90;;;;;;6290137;22;20367;-95
2021/05/15 06:02:19;;;;;;;7.60;5.10;;;7.10;99.90;;;;;;6208733;22;20376;-96
2021/05/15 06:04:54;;;;;;;6.93;5.43;;;7.00;99.90;;;;;;6250439;22;20397;-96
2021/05/15 06:16:13;;;;;;;9.35;4.90;;;7.10;99.90;;;;;;6206977;22;20396;-96
2021/05/15 06:21:29;;;;;;;6.72;4.90;;;7.20;99.90;;;;;;6278803;22;20437;-94
2021/05/15 06:23:55;;;;;;;4.93;4.03;;;7.30;99.90;;;;;;6257596;22;20348;-94
2021/05/15 06:26:27;;;;;;;5.50;4.03;;;7.20;99.90;;;;;;6264487;22;20361;-96
2021/05/15 06:29:36;;;;;;;7.97;4.05;;;7.20;99.90;;;;;;6180048;23;20369;-96
2021/05/15 06:32:03;;;;;;;5.97;4.07;;;7.20;99.90;;;;;;6175521;23;20405;-96
2021/05/15 06:37:37;;;;;;;5.85;3.50;;;7.40;99.90;;;;;;6264636;22;20458;-96
2021/05/15 06:40:10;;;;;;;7.28;3.30;;;7.40;99.90;;;;;;6260732;22;20360;-96
2021/05/15 06:42:40;;;;;;;4.72;3.60;;;7.50;99.90;;;;;;6287203;22;20374;-96
2021/05/15 06:45:12;;;;;;;4.82;3.22;;;7.50;99.90;;;;;;6243825;22;20449;-95
2021/05/15 06:47:41;;;;;;;5.90;3.25;;;7.60;99.90;;;;;;6209861;22;20373;-96
2021/05/15 06:50:09;;;;;;;3.13;2.40;;;7.70;99.90;;;;;;6265152;22;20392;-94
2021/05/15 06:52:52;;;;;;;2.75;2.05;;;7.90;99.90;;;;;;6263368;22;20380;-96
2021/05/15 07:01:07;;;;;;;3.50;2.50;;;8.20;99.90;;;;;;6228074;22;20389;31
2021/05/15 07:03:36;;;;;;;2.88;2.28;;;8.20;99.90;;;;;;6225351;23;20421;-95
2021/05/15 07:06:04;;;;;;;3.00;2.30;;;8.20;99.90;;;;;;6202405;23;20371;-96
2021/05/15 07:09:03;;;;;;;3.97;2.15;;;8.20;99.90;;;;;;6144433;23;20348;-95
2021/05/15 07:11:45;;;;;;;4.50;2.58;;;8.20;99.90;;;;;;6229407;22;20396;-96
2021/05/15 07:17:02;;;;;;;3.40;2.40;;;8.50;99.90;;;;;;6271246;22;20463;-96
2021/05/15 07:19:30;;;;;;;2.92;2.15;;;8.60;99.90;;;;;;6289302;22;20376;-96
2021/05/15 07:22:15;;;;;;;2.75;2.00;;;8.60;99.90;;;;;;6281031;22;20396;-93
2021/05/15 07:24:43;;;;;;;4.50;2.30;;;8.60;99.90;;;;;;6267940;22;20447;-96
2021/05/15 07:27:11;;;;;;;3.77;2.57;;;8.50;99.90;;;;;;6237575;22;20356;-96
2021/05/15 07:30:03;;;;;;;4.10;2.30;;;8.40;99.90;;;;;;6294821;22;20425;-96
2021/05/15 07:32:48;;;;;;;4.22;2.65;;;8.30;99.90;;;;;;6277277;22;20392;-96
2021/05/15 07:35:20;;;;;;;4.60;2.33;;;8.40;99.90;;;;;;6252282;22;20502;-96
2021/05/15 07:37:46;;;;;;;3.90;2.40;;;8.40;99.90;;;;;;6265222;22;20363;-96
2021/05/15 07:40:15;;;;;;;3.83;2.60;;;8.40;99.90;;;;;;6259100;22;20388;-95
2021/05/15 07:42:47;;;;;;;3.50;2.80;;;8.30;99.90;;;;;;6260389;22;20670;-96
2021/05/15 07:45:16;;;;;;;5.20;2.85;;;8.30;99.90;;;;;;6233879;22;20701;-96
2021/05/15 07:48:11;;;;;;;4.40;2.40;;;8.40;99.90;;;;;;6269011;22;20383;-96
2021/05/15 07:51:03;;;;;;;4.75;2.55;;;8.50;99.90;;;;;;6262060;22;20427;-96
2021/05/15 07:53:41;;;;;;;4.43;2.88;;;8.60;99.90;;;;;;6267321;22;20382;-96
2021/05/15 07:56:07;;;;;;;4.45;2.45;;;8.60;99.90;;;;;;6264723;22;20352;-96
2021/05/15 07:58:36;;;;;;;3.70;2.10;;;8.70;99.90;;;;;;6246434;22;20380;-96
2021/05/15 08:01:03;;;;;;;3.05;2.45;;;8.70;99.90;;;;;;6264715;22;20356;-96
2021/05/15 08:03:38;;;;;;;3.22;2.40;;;8.70;99.90;;;;;;6269737;22;20344;-96
2021/05/15 08:06:13;;;;;;;3.38;2.00;;;8.80;99.90;;;;;;6280201;22;20468;-96
2021/05/15 08:09:18;;;;;;;2.78;2.10;;;9.00;99.90;;;;;;6292037;22;20755;-96
2021/05/15 08:11:49;;;;;;;4.05;2.22;;;9.10;99.90;;;;;;6261120;22;20483;-96
2021/05/15 08:17:20;;;;;;;2.92;1.85;;;9.20;99.90;;;;;;6229734;22;20391;-96
2021/05/15 08:26:45;;;;;;;4.97;2.47;;;9.60;99.90;;;;;;6260479;22;20376;-96
2021/05/15 08:42:05;;;;;;;3.42;2.50;;;9.30;99.90;;;;;;6244061;22;20856;-96
2021/05/15 08:45:03;;;;;;;6.43;3.03;;;9.60;99.90;;;;;;6176467;23;20439;-96
2021/05/15 08:47:51;;;;;;;6.22;4.07;;;9.70;99.90;;;;;;6148711;23;20398;-96
2021/05/15 08:50:49;;;;;;;6.70;2.90;;;10.00;99.90;;;;;;6166737;22;21309;-96
2021/05/15 08:57:19;;;;;;;3.45;2.13;;;10.70;99.90;;;;;;6284033;22;20453;-96
2021/05/15 09:02:30;;;;;;;4.55;3.42;;;10.80;99.90;;;;;;6270093;22;20390;-96
2021/05/15 09:48:35;;;;;;;1.75;1.27;;;11.60;99.90;;;;;;6308413;22;20366;-96
2021/05/15 10:01:14;;;;;;;2.30;1.70;;;10.50;99.90;;;;;;6312134;22;20404;-96
2021/05/15 10:07:15;;;;;;;2.73;1.83;;;10.20;99.90;;;;;;6203392;22;20388;-96
2021/05/15 10:25:34;;;;;;;;;;;;;;;;;;;;;
2021/05/15 12:11:21;;;;;;;1.67;1.50;;;14.40;99.90;;;;;;6260829;22;20416;-96
2021/05/15 12:17:52;;;;;;;2.58;1.63;;;13.80;99.90;;;;;;6223470;22;21644;-96
2021/05/15 12:21:10;;;;;;;2.80;1.77;;;13.80;99.90;;;;;;6294146;22;20379;-96
2021/05/15 12:40:12;;;;;;;2.70;1.40;;;14.40;99.90;;;;;;6285810;22;20391;-95
2021/05/15 12:45:46;;;;;;;2.30;1.20;;;15.90;99.90;;;;;;6268289;22;20539;-96
2021/05/15 12:48:54;;;;;;;1.90;1.13;;;15.60;99.90;;;;;;6223495;22;20372;31
2021/05/15 12:52:00;;;;;;;2.15;1.20;;;15.10;99.90;;;;;;6185254;23;20389;-96
2021/05/15 12:55:22;;;;;;;1.93;1.30;;;14.70;99.90;;;;;;6206225;23;20392;-96
2021/05/15 12:58:46;;;;;;;2.03;1.10;;;14.40;99.90;;;;;;6196653;23;20400;-95
2021/05/15 13:01:34;;;;;;;3.10;1.10;;;14.20;99.90;;;;;;6209392;22;20405;-96
2021/05/15 13:04:43;;;;;;;2.25;1.20;;;14.30;99.90;;;;;;6238052;23;20473;-96
2021/05/15 13:07:52;;;;;;;2.92;0.85;;;14.10;99.90;;;;;;6224675;22;20395;-96
2021/05/15 13:30:21;;;;;;;1.10;0.80;;;13.00;99.90;;;;;;6275157;22;20390;-95
2021/05/15 13:33:25;;;;;;;4.13;1.20;;;14.00;99.90;;;;;;6197418;23;20377;-96
2021/05/15 14:06:51;;;;;;;2.40;1.00;;;14.60;99.90;;;;;;6264923;22;20390;-96
2021/05/15 14:11:57;;;;;;;1.52;0.90;;;14.60;99.90;;;;;;6291195;22;20451;-96
2021/05/15 14:14:30;;;;;;;1.85;0.60;;;14.50;99.90;;;;;;6302182;22;20382;-96
2021/05/15 14:16:58;;;;;;;1.10;0.80;;;14.60;99.90;;;;;;6287808;22;20497;-96
2021/05/15 14:19:31;;;;;;;1.77;0.80;;;14.90;99.90;;;;;;6292714;22;20379;-96
2021/05/15 14:21:58;;;;;;;1.73;0.80;;;14.90;99.90;;;;;;6295710;22;20447;-96
2021/05/15 14:25:00;;;;;;;0.75;0.50;;;14.30;99.90;;;;;;6284431;22;21277;-96
2021/05/15 14:31:11;;;;;;;1.35;0.80;;;13.00;99.90;;;;;;6178937;22;20382;-96
2021/05/15 14:33:51;;;;;;;2.70;0.90;;;12.90;99.90;;;;;;6266938;22;20402;-96
2021/05/15 14:36:42;;;;;;;1.17;0.75;;;13.30;99.90;;;;;;6264943;23;20365;-96
2021/05/15 14:39:36;;;;;;;1.05;0.80;;;13.60;99.90;;;;;;6264935;23;20374;-96
2021/05/15 14:42:29;;;;;;;1.13;0.73;;;13.80;99.90;;;;;;6217082;23;20432;-96
2021/05/15 14:45:04;;;;;;;0.90;0.65;;;13.90;99.90;;;;;;6190876;23;20378;-96
2021/05/15 14:47:35;;;;;;;1.67;0.90;;;14.00;99.90;;;;;;6217451;23;20366;-96
2021/05/15 14:50:10;;;;;;;2.25;1.08;;;15.00;99.90;;;;;;6226797;23;20420;-96
2021/05/15 14:52:48;;;;;;;2.50;0.90;;;14.60;99.90;;;;;;6235213;23;20428;-96
2021/05/15 14:55:54;;;;;;;2.13;0.77;;;15.80;99.90;;;;;;6264407;23;20377;-96
2021/05/15 14:58:36;;;;;;;1.15;0.60;;;16.60;99.90;;;;;;6241865;23;20457;-96
2021/05/15 15:01:19;;;;;;;1.00;0.60;;;17.60;99.90;;;;;;6221867;23;20372;-96
2021/05/15 15:04:14;;;;;;;0.70;0.63;;;18.00;99.80;;;;;;6259502;22;20385;-96
2021/05/15 15:07:33;;;;;;;0.65;0.50;;;18.30;97.10;;;;;;6239912;22;20387;-96
2021/05/15 15:17:26;;;;;;;1.60;0.60;;;16.90;97.10;;;;;;6205368;23;20422;-96
2021/05/15 15:20:37;;;;;;;0.65;0.50;;;16.70;98.50;;;;;;6221624;22;20459;-96
2021/05/15 15:24:15;;;;;;;1.00;0.68;;;16.80;97.80;;;;;;6291325;22;20381;-96
2021/05/15 15:27:18;;;;;;;0.90;0.60;;;17.70;95.20;;;;;;6184295;23;20384;-96
2021/05/15 15:30:24;;;;;;;1.92;0.57;;;17.70;94.70;;;;;;6185980;23;20354;-96
2021/05/15 15:33:36;;;;;;;;;;;;;;;;;;;;;
2021/05/15 15:36:30;;;;;;;1.30;0.70;;;16.80;97.10;;;;;;6090416;23;20424;-96
2021/05/15 15:39:59;;;;;;;2.03;0.80;;;16.60;96.60;;;;;;6078372;23;20403;-96
2021/05/15 15:43:08;;;;;;;0.63;0.60;;;16.30;97.40;;;;;;5922526;24;20888;-96
2021/05/15 15:45:45;;;;;;;0.50;0.50;;;16.50;98.80;;;;;;5887836;24;20440;-96
2021/05/15 15:48:50;;;;;;;1.27;0.50;;;17.00;96.50;;;;;;5891862;24;20402;-96
2021/05/15 15:51:41;;;;;;;1.40;0.55;;;17.80;96.00;;;;;;5906794;24;20421;-96
2021/05/15 15:57:54;;;;;;;0.50;0.47;;;17.90;93.90;;;;;;5907029;24;20460;-96
2021/05/15 16:00:22;;;;;;;1.15;0.50;;;19.10;90.60;;;;;;5902374;24;20432;-96
2021/05/15 16:03:03;;;;;;;2.23;0.53;;;19.50;91.90;;;;;;5906192;24;20903;-96
2021/05/15 16:05:56;;;;;;;0.80;0.50;;;20.20;91.30;;;;;;5931538;24;20433;-96
2021/05/15 16:09:44;;;;;;;0.80;0.50;;;20.80;85.30;;;;;;5916884;24;20490;-96
2021/05/15 16:12:26;;;;;;;1.10;0.50;;;20.90;79.80;;;;;;5978852;23;20825;-96
2021/05/15 16:14:56;;;;;;;0.95;0.50;;;20.40;83.60;;;;;;6073650;23;20572;-96
2021/05/15 16:17:52;;;;;;;2.80;0.60;;;20.50;79.80;;;;;;6127167;23;20406;-96
2021/05/15 16:20:53;;;;;;;1.20;0.60;;;20.60;77.90;;;;;;6113347;23;20436;-96
2021/05/15 16:26:30;;;;;;;0.52;0.40;;;20.70;75.10;;;;;;6228466;22;20413;-96
2021/05/15 16:28:58;;;;;;;0.47;0.40;;;20.20;75.10;;;;;;6284783;22;20398;-95
2021/05/15 16:31:25;;;;;;;1.80;0.50;;;20.00;78.40;;;;;;6282667;22;20414;-95
2021/05/15 16:33:53;;;;;;;0.40;0.40;;;19.60;79.10;;;;;;6283167;22;20467;-95
2021/05/15 16:36:20;;;;;;;1.42;0.40;;;18.90;82.00;;;;;;6284409;22;20386;-94
2021/05/15 16:38:47;;;;;;;0.40;0.40;;;18.60;80.30;;;;;;6283199;22;20382;-96
2021/05/15 16:41:18;;;;;;;1.10;0.43;;;17.40;81.60;;;;;;6284526;22;20378;-95
2021/05/15 16:44:16;;;;;;;0.80;0.50;;;16.60;88.10;;;;;;6290982;22;20402;-95
2021/05/15 17:00:59;;;;;;;1.45;0.60;;;13.40;99.90;;;;;;6285360;22;20412;-96
2021/05/15 17:03:54;;;;;;;0.90;0.50;;;13.00;99.90;;;;;;6306411;22;20398;-96
2021/05/15 17:07:02;;;;;;;2.27;1.40;;;13.00;99.90;;;;;;6234450;22;20373;-96
2021/05/15 17:09:50;;;;;;;1.77;1.13;;;12.60;99.90;;;;;;6304460;22;20374;-96
2021/05/15 17:16:18;;;;;;;;;;;;;;;;;;;;;
2021/05/15 17:22:59;;;;;;;1.92;1.10;;;12.70;99.90;;;;;;6080874;23;20390;-96
2021/05/15 17:25:57;;;;;;;1.95;1.20;;;12.60;99.90;;;;;;6237983;23;20366;-96
2021/05/15 17:29:32;;;;;;;2.03;1.45;;;12.50;99.90;;;;;;6266398;22;20370;-96
2021/05/15 17:32:18;;;;;;;20.85;13.60;;;12.10;99.90;;;;;;6198453;22;20389;-91
2021/05/15 17:51:37;;;;;;;;;;;;;;;;;;;;;
2021/05/15 18:38:47;;;;;;;6.32;4.55;;;9.70;99.90;;;;;;6263579;22;20386;-94
2021/05/15 18:41:48;;;;;;;4.18;2.75;;;9.60;99.90;;;;;;6182830;23;20384;-96
2021/05/15 18:44:38;;;;;;;3.03;2.20;;;9.60;99.90;;;;;;6172902;23;20428;-96
2021/05/15 18:47:34;;;;;;;5.88;2.10;;;9.50;99.90;;;;;;6199674;23;20385;-96
2021/05/15 18:50:34;;;;;;;4.10;1.47;;;9.60;99.90;;;;;;6181627;23;20400;-96
2021/05/15 19:01:19;;;;;;;3.88;2.20;;;9.50;99.90;;;;;;6244676;22;20384;-96
2021/05/15 19:04:09;;;;;;;2.90;1.90;;;9.60;99.90;;;;;;6350656;22;20387;-96
2021/05/15 19:09:39;;;;;;;4.78;2.30;;;9.40;99.90;;;;;;6325111;22;20477;-95
2021/05/15 19:13:02;;;;;;;2.20;1.40;;;9.50;99.90;;;;;;6325768;22;20398;-96
2021/05/15 19:16:44;;;;;;;5.43;1.30;;;9.60;99.90;;;;;;6289923;22;20391;-96
2021/05/15 19:20:32;;;;;;;1.73;1.23;;;9.60;99.90;;;;;;6290624;22;20362;-96
2021/05/15 19:45:32;;;;;;;4.30;1.10;;;9.60;99.90;;;;;;6305222;22;20390;-96
2021/05/15 19:48:28;;;;;;;1.75;1.10;;;9.60;99.90;;;;;;6311839;22;20826;-94
2021/05/15 19:51:46;;;;;;;2.53;1.08;;;9.60;99.90;;;;;;6317504;22;20446;-96
2021/05/15 20:11:46;;;;;;;4.50;2.72;;;9.30;99.90;;;;;;6295923;22;20386;-95
2021/05/15 20:14:41;;;;;;;3.40;1.80;;;9.20;99.90;;;;;;6244871;22;20475;-95
2021/05/15 20:17:34;;;;;;;1.90;1.40;;;9.20;99.90;;;;;;6308024;22;20369;-96
2021/05/15 20:20:46;;;;;;;2.35;1.48;;;9.20;99.90;;;;;;6310977;22;20354;-95
2021/05/15 20:23:36;;;;;;;2.60;1.60;;;9.20;99.90;;;;;;6304603;22;20382;-95
2021/05/15 20:26:30;;;;;;;3.67;2.10;;;9.30;99.90;;;;;;6284665;22;20403;-95
2021/05/15 20:29:45;;;;;;;6.18;2.38;;;9.30;99.90;;;;;;6300675;22;20382;-96
2021/05/15 20:32:58;;;;;;;4.30;2.45;;;9.40;99.90;;;;;;6304134;22;20426;-95
2021/05/15 20:35:53;;;;;;;3.60;2.40;;;9.30;99.90;;;;;;6309575;22;20350;-95
2021/05/15 20:39:04;;;;;;;4.90;2.67;;;9.30;99.90;;;;;;6309941;22;20377;-95
2021/05/15 20:41:45;;;;;;;3.83;2.37;;;9.40;99.90;;;;;;6259122;22;20417;-96
2021/05/15 20:44:50;;;;;;;4.47;2.70;;;9.50;99.90;;;;;;6309767;22;20447;-96
2021/05/15 20:47:43;;;;;;;5.55;2.00;;;9.60;99.90;;;;;;6311833;22;20378;-96
2021/05/15 20:50:42;;;;;;;5.03;1.92;;;9.60;99.90;;;;;;6236772;22;20375;-95
2021/05/15 20:54:26;;;;;;;1.40;1.15;;;9.60;99.90;;;;;;6276232;22;20397;-96
2021/05/15 21:13:13;;;;;;;2.17;1.42;;;8.80;99.90;;;;;;6230692;22;20383;31
2021/05/15 21:39:48;;;;;;;3.67;1.20;;;8.50;99.90;;;;;;6233736;22;20361;31
2021/05/15 21:42:16;;;;;;;1.53;1.00;;;8.50;99.90;;;;;;6207529;23;20693;-96
2021/05/15 21:44:55;;;;;;;1.25;0.90;;;8.50;99.90;;;;;;6229825;23;20432;-96
2021/05/15 21:47:26;;;;;;;1.30;0.60;;;8.50;99.90;;;;;;6233736;23;20458;-96
2021/05/15 21:50:22;;;;;;;2.15;1.08;;;8.60;99.90;;;;;;6208748;23;20388;-96
2021/05/15 21:53:25;;;;;;;1.93;1.17;;;8.60;99.90;;;;;;6232664;23;20406;-96
2021/05/15 21:55:56;;;;;;;1.88;1.10;;;8.50;99.90;;;;;;6228776;23;20400;-95
2021/05/15 21:58:42;;;;;;;3.33;1.30;;;8.40;99.90;;;;;;6236644;22;20386;-96
2021/05/15 22:05:26;;;;;;;3.60;2.00;;;8.30;99.90;;;;;;6255954;22;20415;31
2021/05/15 22:11:35;;;;;;;3.00;2.15;;;8.20;99.90;;;;;;6262936;22;20381;-96
2021/05/15 23:55:09;;;;;;;10.30;6.07;;;6.90;99.90;;;;;;6308367;22;20350;-96
